sensor_id;sensor_type;location;lat;lon;timestamp;P1;durP1;ratioP1;P2;durP2;ratioP2
19521;SDS011;9905;52.126;5.596;2023-03-14T00:00:59;6.55;;;4.50;;
19521;SDS011;9905;52.126;5.596;2023-03-14T00:03:27;5.75;;;4.45;;
19521;SDS011;9905;52.126;5.596;2023-03-14T00:05:54;9.75;;;5.13;;
19521;SDS011;9905;52.126;5.596;2023-03-14T00:08:21;10.10;;;4.97;;
19521;SDS011;9905;52.126;5.596;2023-03-14T00:10:49;6.38;;;4.25;;
19521;SDS011;9905;52.126;5.596;2023-03-14T00:13:16;7.85;;;5.05;;
19521;SDS011;9905;52.126;5.596;2023-03-14T00:15:43;7.45;;;4.70;;
19521;SDS011;9905;52.126;5.596;2023-03-14T00:18:11;7.32;;;4.53;;
19521;SDS011;9905;52.126;5.596;2023-03-14T00:20:37;4.43;;;4.00;;
19521;SDS011;9905;52.126;5.596;2023-03-14T00:23:04;9.32;;;4.30;;
19521;SDS011;9905;52.126;5.596;2023-03-14T00:25:31;4.53;;;4.22;;
19521;SDS011;9905;52.126;5.596;2023-03-14T00:27:58;6.70;;;4.40;;
19521;SDS011;9905;52.126;5.596;2023-03-14T00:30:24;5.97;;;4.30;;
19521;SDS011;9905;52.126;5.596;2023-03-14T00:32:51;9.57;;;4.55;;
19521;SDS011;9905;52.126;5.596;2023-03-14T00:35:19;8.70;;;4.00;;
19521;SDS011;9905;52.126;5.596;2023-03-14T00:37:46;8.90;;;4.07;;
19521;SDS011;9905;52.126;5.596;2023-03-14T00:40:13;5.57;;;3.78;;
19521;SDS011;9905;52.126;5.596;2023-03-14T00:42:39;4.30;;;3.72;;
19521;SDS011;9905;52.126;5.596;2023-03-14T00:45:07;11.63;;;3.30;;
19521;SDS011;9905;52.126;5.596;2023-03-14T00:47:35;6.55;;;3.58;;
19521;SDS011;9905;52.126;5.596;2023-03-14T00:50:02;6.03;;;3.50;;
19521;SDS011;9905;52.126;5.596;2023-03-14T00:52:30;9.93;;;3.90;;
19521;SDS011;9905;52.126;5.596;2023-03-14T00:54:57;7.00;;;3.75;;
19521;SDS011;9905;52.126;5.596;2023-03-14T00:57:23;9.90;;;3.58;;
19521;SDS011;9905;52.126;5.596;2023-03-14T00:59:50;5.72;;;3.88;;
19521;SDS011;9905;52.126;5.596;2023-03-14T01:02:17;8.02;;;3.47;;
19521;SDS011;9905;52.126;5.596;2023-03-14T01:04:44;6.82;;;3.33;;
19521;SDS011;9905;52.126;5.596;2023-03-14T01:07:13;5.07;;;3.83;;
19521;SDS011;9905;52.126;5.596;2023-03-14T01:09:41;4.40;;;3.30;;
19521;SDS011;9905;52.126;5.596;2023-03-14T01:12:08;4.80;;;3.25;;
19521;SDS011;9905;52.126;5.596;2023-03-14T01:14:35;3.70;;;3.47;;
19521;SDS011;9905;52.126;5.596;2023-03-14T01:17:02;4.88;;;3.45;;
19521;SDS011;9905;52.126;5.596;2023-03-14T01:19:28;5.55;;;3.78;;
19521;SDS011;9905;52.126;5.596;2023-03-14T01:21:55;3.70;;;3.30;;
19521;SDS011;9905;52.126;5.596;2023-03-14T01:24:22;3.97;;;3.67;;
19521;SDS011;9905;52.126;5.596;2023-03-14T01:26:50;5.60;;;3.88;;
19521;SDS011;9905;52.126;5.596;2023-03-14T01:29:17;5.00;;;3.53;;
19521;SDS011;9905;52.126;5.596;2023-03-14T01:31:43;5.22;;;3.67;;
19521;SDS011;9905;52.126;5.596;2023-03-14T01:34:10;9.60;;;4.93;;
19521;SDS011;9905;52.126;5.596;2023-03-14T01:36:37;5.10;;;4.30;;
19521;SDS011;9905;52.126;5.596;2023-03-14T01:39:03;7.18;;;5.22;;
19521;SDS011;9905;52.126;5.596;2023-03-14T01:41:31;7.47;;;4.95;;
19521;SDS011;9905;52.126;5.596;2023-03-14T01:43:59;5.78;;;5.20;;
19521;SDS011;9905;52.126;5.596;2023-03-14T01:46:28;6.55;;;6.05;;
19521;SDS011;9905;52.126;5.596;2023-03-14T01:49:04;6.65;;;6.25;;
19521;SDS011;9905;52.126;5.596;2023-03-14T01:51:39;6.68;;;6.32;;
19521;SDS011;9905;52.126;5.596;2023-03-14T01:54:10;6.90;;;6.47;;
19521;SDS011;9905;52.126;5.596;2023-03-14T01:56:42;6.93;;;6.63;;
19521;SDS011;9905;52.126;5.596;2023-03-14T01:59:13;8.00;;;7.18;;
19521;SDS011;9905;52.126;5.596;2023-03-14T02:01:41;7.57;;;7.10;;
19521;SDS011;9905;52.126;5.596;2023-03-14T02:04:09;8.73;;;7.93;;
19521;SDS011;9905;52.126;5.596;2023-03-14T02:06:40;7.95;;;7.40;;
19521;SDS011;9905;52.126;5.596;2023-03-14T02:09:12;7.95;;;7.55;;
19521;SDS011;9905;52.126;5.596;2023-03-14T02:11:39;8.15;;;7.72;;
19521;SDS011;9905;52.126;5.596;2023-03-14T02:14:06;8.68;;;8.23;;
19521;SDS011;9905;52.126;5.596;2023-03-14T02:16:37;8.70;;;8.18;;
19521;SDS011;9905;52.126;5.596;2023-03-14T02:19:04;7.97;;;7.50;;
19521;SDS011;9905;52.126;5.596;2023-03-14T02:21:34;7.20;;;6.80;;
19521;SDS011;9905;52.126;5.596;2023-03-14T02:24:12;8.98;;;8.18;;
19521;SDS011;9905;52.126;5.596;2023-03-14T02:27:09;7.93;;;7.43;;
19521;SDS011;9905;52.126;5.596;2023-03-14T02:29:38;8.15;;;7.75;;
19521;SDS011;9905;52.126;5.596;2023-03-14T02:32:09;7.65;;;7.25;;
19521;SDS011;9905;52.126;5.596;2023-03-14T02:34:37;9.18;;;8.43;;
19521;SDS011;9905;52.126;5.596;2023-03-14T02:37:04;8.45;;;7.90;;
19521;SDS011;9905;52.126;5.596;2023-03-14T02:39:33;9.40;;;8.95;;
19521;SDS011;9905;52.126;5.596;2023-03-14T02:42:02;8.85;;;8.13;;
19521;SDS011;9905;52.126;5.596;2023-03-14T02:44:30;10.55;;;9.68;;
19521;SDS011;9905;52.126;5.596;2023-03-14T02:46:57;9.80;;;9.20;;
19521;SDS011;9905;52.126;5.596;2023-03-14T02:49:24;9.50;;;9.05;;
19521;SDS011;9905;52.126;5.596;2023-03-14T02:51:53;9.82;;;9.32;;
19521;SDS011;9905;52.126;5.596;2023-03-14T02:54:19;9.75;;;9.25;;
19521;SDS011;9905;52.126;5.596;2023-03-14T02:56:47;10.65;;;9.85;;
19521;SDS011;9905;52.126;5.596;2023-03-14T02:59:14;10.90;;;10.18;;
19521;SDS011;9905;52.126;5.596;2023-03-14T03:01:42;10.18;;;9.50;;
19521;SDS011;9905;52.126;5.596;2023-03-14T03:04:08;11.40;;;10.10;;
19521;SDS011;9905;52.126;5.596;2023-03-14T03:06:35;9.48;;;8.98;;
19521;SDS011;9905;52.126;5.596;2023-03-14T03:09:02;10.25;;;9.45;;
19521;SDS011;9905;52.126;5.596;2023-03-14T03:11:29;9.85;;;9.15;;
19521;SDS011;9905;52.126;5.596;2023-03-14T03:13:56;10.13;;;9.63;;
19521;SDS011;9905;52.126;5.596;2023-03-14T03:16:23;9.85;;;9.07;;
19521;SDS011;9905;52.126;5.596;2023-03-14T03:18:51;9.93;;;9.00;;
19521;SDS011;9905;52.126;5.596;2023-03-14T03:21:18;8.88;;;8.27;;
19521;SDS011;9905;52.126;5.596;2023-03-14T03:23:48;9.55;;;8.65;;
19521;SDS011;9905;52.126;5.596;2023-03-14T03:26:15;9.30;;;8.65;;
19521;SDS011;9905;52.126;5.596;2023-03-14T03:28:41;9.82;;;9.02;;
19521;SDS011;9905;52.126;5.596;2023-03-14T03:31:08;8.70;;;8.30;;
19521;SDS011;9905;52.126;5.596;2023-03-14T03:33:36;9.00;;;8.40;;
19521;SDS011;9905;52.126;5.596;2023-03-14T03:36:05;9.23;;;8.52;;
19521;SDS011;9905;52.126;5.596;2023-03-14T03:38:32;8.48;;;7.68;;
19521;SDS011;9905;52.126;5.596;2023-03-14T03:41:01;8.50;;;7.90;;
19521;SDS011;9905;52.126;5.596;2023-03-14T03:43:29;8.98;;;8.18;;
19521;SDS011;9905;52.126;5.596;2023-03-14T03:45:56;7.90;;;7.53;;
19521;SDS011;9905;52.126;5.596;2023-03-14T03:48:23;9.20;;;8.70;;
19521;SDS011;9905;52.126;5.596;2023-03-14T03:50:50;9.57;;;8.43;;
19521;SDS011;9905;52.126;5.596;2023-03-14T03:53:18;8.65;;;7.95;;
19521;SDS011;9905;52.126;5.596;2023-03-14T03:55:45;8.85;;;8.10;;
19521;SDS011;9905;52.126;5.596;2023-03-14T03:58:11;8.73;;;8.10;;
19521;SDS011;9905;52.126;5.596;2023-03-14T04:00:38;8.55;;;8.02;;
19521;SDS011;9905;52.126;5.596;2023-03-14T04:03:05;8.27;;;7.70;;
19521;SDS011;9905;52.126;5.596;2023-03-14T04:05:32;8.50;;;7.80;;
19521;SDS011;9905;52.126;5.596;2023-03-14T04:07:59;8.98;;;8.20;;
19521;SDS011;9905;52.126;5.596;2023-03-14T04:10:27;7.65;;;7.10;;
19521;SDS011;9905;52.126;5.596;2023-03-14T04:12:54;8.10;;;7.30;;
19521;SDS011;9905;52.126;5.596;2023-03-14T04:15:21;8.40;;;7.43;;
19521;SDS011;9905;52.126;5.596;2023-03-14T04:17:47;8.82;;;7.30;;
19521;SDS011;9905;52.126;5.596;2023-03-14T04:20:14;8.18;;;7.55;;
19521;SDS011;9905;52.126;5.596;2023-03-14T04:22:41;7.95;;;7.45;;
19521;SDS011;9905;52.126;5.596;2023-03-14T04:25:09;7.43;;;6.93;;
19521;SDS011;9905;52.126;5.596;2023-03-14T04:27:37;7.85;;;7.28;;
19521;SDS011;9905;52.126;5.596;2023-03-14T04:30:04;10.82;;;7.88;;
19521;SDS011;9905;52.126;5.596;2023-03-14T04:32:31;10.48;;;8.10;;
19521;SDS011;9905;52.126;5.596;2023-03-14T04:34:58;10.50;;;7.88;;
19521;SDS011;9905;52.126;5.596;2023-03-14T04:37:24;9.80;;;7.97;;
19521;SDS011;9905;52.126;5.596;2023-03-14T04:39:51;8.68;;;7.65;;
19521;SDS011;9905;52.126;5.596;2023-03-14T04:42:18;7.18;;;6.72;;
19521;SDS011;9905;52.126;5.596;2023-03-14T04:44:46;7.00;;;6.32;;
19521;SDS011;9905;52.126;5.596;2023-03-14T04:47:14;7.53;;;6.70;;
19521;SDS011;9905;52.126;5.596;2023-03-14T04:49:41;7.97;;;7.20;;
19521;SDS011;9905;52.126;5.596;2023-03-14T04:52:07;7.40;;;6.75;;
19521;SDS011;9905;52.126;5.596;2023-03-14T04:54:34;8.18;;;6.70;;
19521;SDS011;9905;52.126;5.596;2023-03-14T04:57:01;7.20;;;6.60;;
19521;SDS011;9905;52.126;5.596;2023-03-14T04:59:28;7.95;;;7.30;;
19521;SDS011;9905;52.126;5.596;2023-03-14T05:01:56;9.23;;;7.35;;
19521;SDS011;9905;52.126;5.596;2023-03-14T05:04:23;8.98;;;7.82;;
19521;SDS011;9905;52.126;5.596;2023-03-14T05:06:50;7.50;;;6.88;;
19521;SDS011;9905;52.126;5.596;2023-03-14T05:09:16;7.95;;;7.28;;
19521;SDS011;9905;52.126;5.596;2023-03-14T05:11:43;7.88;;;7.22;;
19521;SDS011;9905;52.126;5.596;2023-03-14T05:14:10;7.25;;;6.60;;
19521;SDS011;9905;52.126;5.596;2023-03-14T05:16:37;7.43;;;6.90;;
19521;SDS011;9905;52.126;5.596;2023-03-14T05:19:05;7.70;;;7.30;;
19521;SDS011;9905;52.126;5.596;2023-03-14T05:21:31;8.02;;;7.53;;
19521;SDS011;9905;52.126;5.596;2023-03-14T05:23:58;8.45;;;7.72;;
19521;SDS011;9905;52.126;5.596;2023-03-14T05:26:25;8.60;;;8.10;;
19521;SDS011;9905;52.126;5.596;2023-03-14T05:28:51;9.32;;;8.68;;
19521;SDS011;9905;52.126;5.596;2023-03-14T05:31:18;9.75;;;9.35;;
19521;SDS011;9905;52.126;5.596;2023-03-14T05:33:45;9.55;;;9.15;;
19521;SDS011;9905;52.126;5.596;2023-03-14T05:36:13;11.20;;;10.32;;
19521;SDS011;9905;52.126;5.596;2023-03-14T05:38:40;10.65;;;9.88;;
19521;SDS011;9905;52.126;5.596;2023-03-14T05:41:07;10.82;;;10.32;;
19521;SDS011;9905;52.126;5.596;2023-03-14T05:43:34;11.70;;;10.95;;
19521;SDS011;9905;52.126;5.596;2023-03-14T05:46:00;11.75;;;11.07;;
19521;SDS011;9905;52.126;5.596;2023-03-14T05:48:27;12.13;;;11.32;;
19521;SDS011;9905;52.126;5.596;2023-03-14T05:50:54;12.13;;;11.43;;
19521;SDS011;9905;52.126;5.596;2023-03-14T05:53:23;13.05;;;12.13;;
19521;SDS011;9905;52.126;5.596;2023-03-14T05:55:50;12.50;;;11.57;;
19521;SDS011;9905;52.126;5.596;2023-03-14T05:58:18;13.20;;;12.35;;
19521;SDS011;9905;52.126;5.596;2023-03-14T06:00:45;13.50;;;12.68;;
19521;SDS011;9905;52.126;5.596;2023-03-14T06:03:12;14.00;;;12.98;;
19521;SDS011;9905;52.126;5.596;2023-03-14T06:05:38;14.93;;;14.13;;
19521;SDS011;9905;52.126;5.596;2023-03-14T06:08:05;15.73;;;14.85;;
19521;SDS011;9905;52.126;5.596;2023-03-14T06:10:34;15.57;;;14.68;;
19521;SDS011;9905;52.126;5.596;2023-03-14T06:13:01;15.35;;;14.52;;
19521;SDS011;9905;52.126;5.596;2023-03-14T06:15:28;14.63;;;13.82;;
19521;SDS011;9905;52.126;5.596;2023-03-14T06:17:55;17.30;;;16.38;;
19521;SDS011;9905;52.126;5.596;2023-03-14T06:20:22;16.95;;;16.05;;
19521;SDS011;9905;52.126;5.596;2023-03-14T06:22:48;16.33;;;15.55;;
19521;SDS011;9905;52.126;5.596;2023-03-14T06:25:15;18.00;;;17.10;;
19521;SDS011;9905;52.126;5.596;2023-03-14T06:27:43;18.45;;;17.27;;
19521;SDS011;9905;52.126;5.596;2023-03-14T06:30:10;17.00;;;16.10;;
19521;SDS011;9905;52.126;5.596;2023-03-14T06:32:37;16.63;;;15.65;;
19521;SDS011;9905;52.126;5.596;2023-03-14T06:35:05;17.25;;;16.25;;
19521;SDS011;9905;52.126;5.596;2023-03-14T06:37:32;17.40;;;16.40;;
19521;SDS011;9905;52.126;5.596;2023-03-14T06:39:58;17.55;;;16.75;;
19521;SDS011;9905;52.126;5.596;2023-03-14T06:42:25;19.10;;;18.20;;
19521;SDS011;9905;52.126;5.596;2023-03-14T06:44:53;17.98;;;16.98;;
19521;SDS011;9905;52.126;5.596;2023-03-14T06:47:20;17.95;;;16.52;;
19521;SDS011;9905;52.126;5.596;2023-03-14T06:49:47;18.65;;;17.65;;
19521;SDS011;9905;52.126;5.596;2023-03-14T06:52:13;18.98;;;17.88;;
19521;SDS011;9905;52.126;5.596;2023-03-14T06:54:40;19.38;;;18.42;;
19521;SDS011;9905;52.126;5.596;2023-03-14T06:57:07;19.10;;;18.00;;
19521;SDS011;9905;52.126;5.596;2023-03-14T06:59:33;19.88;;;18.77;;
19521;SDS011;9905;52.126;5.596;2023-03-14T07:02:02;20.80;;;19.45;;
19521;SDS011;9905;52.126;5.596;2023-03-14T07:04:28;18.60;;;17.75;;
19521;SDS011;9905;52.126;5.596;2023-03-14T07:06:55;13.00;;;12.40;;
19521;SDS011;9905;52.126;5.596;2023-03-14T07:09:22;10.80;;;10.45;;
19521;SDS011;9905;52.126;5.596;2023-03-14T07:11:48;12.20;;;11.80;;
19521;SDS011;9905;52.126;5.596;2023-03-14T07:14:15;12.32;;;11.95;;
19521;SDS011;9905;52.126;5.596;2023-03-14T07:16:42;13.23;;;12.73;;
19521;SDS011;9905;52.126;5.596;2023-03-14T07:19:11;12.65;;;12.35;;
19521;SDS011;9905;52.126;5.596;2023-03-14T07:21:38;13.38;;;12.98;;
19521;SDS011;9905;52.126;5.596;2023-03-14T07:24:05;14.65;;;14.05;;
19521;SDS011;9905;52.126;5.596;2023-03-14T07:26:32;14.80;;;14.40;;
19521;SDS011;9905;52.126;5.596;2023-03-14T07:28:58;16.60;;;15.98;;
19521;SDS011;9905;52.126;5.596;2023-03-14T07:31:28;17.75;;;17.00;;
19521;SDS011;9905;52.126;5.596;2023-03-14T07:33:55;19.77;;;19.08;;
19521;SDS011;9905;52.126;5.596;2023-03-14T07:36:23;19.67;;;18.67;;
19521;SDS011;9905;52.126;5.596;2023-03-14T07:38:50;19.38;;;18.77;;
19521;SDS011;9905;52.126;5.596;2023-03-14T07:41:17;19.83;;;19.25;;
19521;SDS011;9905;52.126;5.596;2023-03-14T07:43:45;19.17;;;18.58;;
19521;SDS011;9905;52.126;5.596;2023-03-14T07:46:12;20.10;;;19.50;;
19521;SDS011;9905;52.126;5.596;2023-03-14T07:48:39;20.55;;;19.80;;
19521;SDS011;9905;52.126;5.596;2023-03-14T07:51:06;20.65;;;20.05;;
19521;SDS011;9905;52.126;5.596;2023-03-14T07:53:34;20.90;;;20.40;;
19521;SDS011;9905;52.126;5.596;2023-03-14T07:56:01;22.00;;;21.20;;
19521;SDS011;9905;52.126;5.596;2023-03-14T07:58:28;23.10;;;22.40;;
19521;SDS011;9905;52.126;5.596;2023-03-14T08:00:54;21.90;;;21.00;;
19521;SDS011;9905;52.126;5.596;2023-03-14T08:03:21;21.55;;;20.95;;
19521;SDS011;9905;52.126;5.596;2023-03-14T08:05:48;21.63;;;21.02;;
19521;SDS011;9905;52.126;5.596;2023-03-14T08:08:16;21.02;;;20.42;;
19521;SDS011;9905;52.126;5.596;2023-03-14T08:10:45;21.13;;;20.40;;
19521;SDS011;9905;52.126;5.596;2023-03-14T08:13:13;22.20;;;21.08;;
19521;SDS011;9905;52.126;5.596;2023-03-14T08:15:40;22.20;;;21.42;;
19521;SDS011;9905;52.126;5.596;2023-03-14T08:18:07;20.55;;;19.85;;
19521;SDS011;9905;52.126;5.596;2023-03-14T08:20:33;21.67;;;20.60;;
19521;SDS011;9905;52.126;5.596;2023-03-14T08:23:02;18.23;;;17.67;;
19521;SDS011;9905;52.126;5.596;2023-03-14T08:25:29;17.90;;;17.10;;
19521;SDS011;9905;52.126;5.596;2023-03-14T08:27:58;17.58;;;16.85;;
19521;SDS011;9905;52.126;5.596;2023-03-14T08:30:25;18.55;;;18.00;;
19521;SDS011;9905;52.126;5.596;2023-03-14T08:32:52;18.42;;;17.67;;
19521;SDS011;9905;52.126;5.596;2023-03-14T08:35:18;18.27;;;17.38;;
19521;SDS011;9905;52.126;5.596;2023-03-14T08:37:45;16.55;;;15.85;;
19521;SDS011;9905;52.126;5.596;2023-03-14T08:40:12;17.60;;;16.90;;
19521;SDS011;9905;52.126;5.596;2023-03-14T08:42:40;18.70;;;17.67;;
19521;SDS011;9905;52.126;5.596;2023-03-14T08:45:10;17.92;;;17.00;;
19521;SDS011;9905;52.126;5.596;2023-03-14T08:47:38;19.48;;;18.45;;
19521;SDS011;9905;52.126;5.596;2023-03-14T08:50:06;18.40;;;17.75;;
19521;SDS011;9905;52.126;5.596;2023-03-14T08:52:34;18.05;;;17.35;;
19521;SDS011;9905;52.126;5.596;2023-03-14T08:55:02;17.42;;;16.90;;
19521;SDS011;9905;52.126;5.596;2023-03-14T08:57:30;15.82;;;15.40;;
19521;SDS011;9905;52.126;5.596;2023-03-14T08:59:56;16.65;;;16.13;;
19521;SDS011;9905;52.126;5.596;2023-03-14T09:02:25;16.95;;;16.10;;
19521;SDS011;9905;52.126;5.596;2023-03-14T09:04:52;15.57;;;15.07;;
19521;SDS011;9905;52.126;5.596;2023-03-14T09:07:19;16.23;;;15.77;;
19521;SDS011;9905;52.126;5.596;2023-03-14T09:09:46;13.90;;;13.50;;
19521;SDS011;9905;52.126;5.596;2023-03-14T09:12:13;13.30;;;12.90;;
19521;SDS011;9905;52.126;5.596;2023-03-14T09:14:40;14.50;;;13.77;;
19521;SDS011;9905;52.126;5.596;2023-03-14T09:17:06;14.48;;;13.88;;
19521;SDS011;9905;52.126;5.596;2023-03-14T09:19:35;12.70;;;11.88;;
19521;SDS011;9905;52.126;5.596;2023-03-14T09:22:02;11.85;;;11.35;;
19521;SDS011;9905;52.126;5.596;2023-03-14T09:24:29;12.73;;;12.13;;
19521;SDS011;9905;52.126;5.596;2023-03-14T09:26:56;13.63;;;13.02;;
19521;SDS011;9905;52.126;5.596;2023-03-14T09:29:22;12.50;;;11.85;;
19521;SDS011;9905;52.126;5.596;2023-03-14T09:31:50;12.30;;;11.65;;
19521;SDS011;9905;52.126;5.596;2023-03-14T09:34:17;12.05;;;11.50;;
19521;SDS011;9905;52.126;5.596;2023-03-14T09:36:45;11.95;;;11.10;;
19521;SDS011;9905;52.126;5.596;2023-03-14T09:39:12;11.75;;;11.18;;
19521;SDS011;9905;52.126;5.596;2023-03-14T09:41:39;11.70;;;10.95;;
19521;SDS011;9905;52.126;5.596;2023-03-14T09:44:09;12.38;;;11.93;;
19521;SDS011;9905;52.126;5.596;2023-03-14T09:46:39;10.98;;;10.48;;
19521;SDS011;9905;52.126;5.596;2023-03-14T09:49:11;11.95;;;11.18;;
19521;SDS011;9905;52.126;5.596;2023-03-14T09:51:42;12.55;;;11.57;;
19521;SDS011;9905;52.126;5.596;2023-03-14T09:54:17;12.55;;;11.27;;
19521;SDS011;9905;52.126;5.596;2023-03-14T09:56:56;10.70;;;10.10;;
19521;SDS011;9905;52.126;5.596;2023-03-14T09:59:23;11.88;;;11.13;;
19521;SDS011;9905;52.126;5.596;2023-03-14T10:01:52;11.35;;;10.98;;
19521;SDS011;9905;52.126;5.596;2023-03-14T10:04:21;10.90;;;9.93;;
19521;SDS011;9905;52.126;5.596;2023-03-14T10:06:50;11.30;;;10.30;;
19521;SDS011;9905;52.126;5.596;2023-03-14T10:09:19;11.20;;;10.13;;
19521;SDS011;9905;52.126;5.596;2023-03-14T10:11:51;11.40;;;10.50;;
19521;SDS011;9905;52.126;5.596;2023-03-14T10:14:28;12.10;;;10.75;;
19521;SDS011;9905;52.126;5.596;2023-03-14T10:16:59;10.90;;;9.85;;
19521;SDS011;9905;52.126;5.596;2023-03-14T10:19:32;11.20;;;10.25;;
19521;SDS011;9905;52.126;5.596;2023-03-14T10:22:02;10.50;;;9.57;;
19521;SDS011;9905;52.126;5.596;2023-03-14T10:24:31;11.35;;;10.40;;
19521;SDS011;9905;52.126;5.596;2023-03-14T10:26:59;11.00;;;10.05;;
19521;SDS011;9905;52.126;5.596;2023-03-14T10:29:27;10.60;;;9.90;;
19521;SDS011;9905;52.126;5.596;2023-03-14T10:31:57;9.10;;;8.35;;
19521;SDS011;9905;52.126;5.596;2023-03-14T10:34:27;10.05;;;9.20;;
19521;SDS011;9905;52.126;5.596;2023-03-14T10:36:56;9.25;;;8.40;;
19521;SDS011;9905;52.126;5.596;2023-03-14T10:39:27;9.85;;;8.95;;
19521;SDS011;9905;52.126;5.596;2023-03-14T10:42:04;10.60;;;8.63;;
19521;SDS011;9905;52.126;5.596;2023-03-14T10:44:37;9.77;;;8.60;;
19521;SDS011;9905;52.126;5.596;2023-03-14T10:47:05;12.73;;;9.00;;
19521;SDS011;9905;52.126;5.596;2023-03-14T10:49:33;12.63;;;8.20;;
19521;SDS011;9905;52.126;5.596;2023-03-14T10:52:02;12.85;;;8.27;;
19521;SDS011;9905;52.126;5.596;2023-03-14T10:54:42;9.15;;;8.35;;
19521;SDS011;9905;52.126;5.596;2023-03-14T10:57:13;9.32;;;7.45;;
19521;SDS011;9905;52.126;5.596;2023-03-14T10:59:41;7.72;;;7.13;;
19521;SDS011;9905;52.126;5.596;2023-03-14T11:02:13;10.48;;;7.45;;
19521;SDS011;9905;52.126;5.596;2023-03-14T11:04:56;8.98;;;7.05;;
19521;SDS011;9905;52.126;5.596;2023-03-14T11:07:30;13.68;;;9.02;;
19521;SDS011;9905;52.126;5.596;2023-03-14T11:10:07;8.27;;;7.40;;
19521;SDS011;9905;52.126;5.596;2023-03-14T11:12:41;7.82;;;6.75;;
19521;SDS011;9905;52.126;5.596;2023-03-14T11:15:18;9.45;;;7.22;;
19521;SDS011;9905;52.126;5.596;2023-03-14T11:17:54;10.10;;;6.10;;
19521;SDS011;9905;52.126;5.596;2023-03-14T11:20:42;11.10;;;5.78;;
19521;SDS011;9905;52.126;5.596;2023-03-14T11:23:18;8.88;;;6.43;;
19521;SDS011;9905;52.126;5.596;2023-03-14T11:25:51;12.50;;;5.78;;
19521;SDS011;9905;52.126;5.596;2023-03-14T11:28:27;9.48;;;6.22;;
19521;SDS011;9905;52.126;5.596;2023-03-14T11:31:00;6.88;;;5.22;;
19521;SDS011;9905;52.126;5.596;2023-03-14T11:33:37;11.52;;;6.00;;
19521;SDS011;9905;52.126;5.596;2023-03-14T11:36:06;9.40;;;5.20;;
19521;SDS011;9905;52.126;5.596;2023-03-14T11:38:34;10.13;;;5.53;;
19521;SDS011;9905;52.126;5.596;2023-03-14T11:41:08;6.40;;;5.85;;
19521;SDS011;9905;52.126;5.596;2023-03-14T11:43:39;8.30;;;4.65;;
19521;SDS011;9905;52.126;5.596;2023-03-14T11:46:09;11.52;;;4.95;;
19521;SDS011;9905;52.126;5.596;2023-03-14T11:48:41;7.57;;;5.03;;
19521;SDS011;9905;52.126;5.596;2023-03-14T11:51:13;6.68;;;4.22;;
19521;SDS011;9905;52.126;5.596;2023-03-14T11:53:48;6.65;;;4.93;;
19521;SDS011;9905;52.126;5.596;2023-03-14T11:56:24;7.72;;;4.30;;
19521;SDS011;9905;52.126;5.596;2023-03-14T11:58:57;6.43;;;3.92;;
19521;SDS011;9905;52.126;5.596;2023-03-14T12:01:30;7.13;;;3.70;;
19521;SDS011;9905;52.126;5.596;2023-03-14T12:04:05;5.72;;;3.47;;
19521;SDS011;9905;52.126;5.596;2023-03-14T12:06:40;4.40;;;4.00;;
19521;SDS011;9905;52.126;5.596;2023-03-14T12:09:13;5.50;;;3.65;;
19521;SDS011;9905;52.126;5.596;2023-03-14T12:11:43;4.38;;;3.30;;
19521;SDS011;9905;52.126;5.596;2023-03-14T12:14:17;3.70;;;2.90;;
19521;SDS011;9905;52.126;5.596;2023-03-14T12:16:47;5.25;;;2.92;;
19521;SDS011;9905;52.126;5.596;2023-03-14T12:22:08;5.20;;;2.55;;
19521;SDS011;9905;52.126;5.596;2023-03-14T12:24:51;3.03;;;2.83;;
19521;SDS011;9905;52.126;5.596;2023-03-14T12:30:17;5.80;;;3.08;;
19521;SDS011;9905;52.126;5.596;2023-03-14T12:33:10;3.35;;;2.38;;
19521;SDS011;9905;52.126;5.596;2023-03-14T12:35:39;3.33;;;2.45;;
19521;SDS011;9905;52.126;5.596;2023-03-14T12:38:09;5.70;;;3.30;;
19521;SDS011;9905;52.126;5.596;2023-03-14T12:40:39;7.18;;;3.17;;
19521;SDS011;9905;52.126;5.596;2023-03-14T12:43:25;4.68;;;2.63;;
19521;SDS011;9905;52.126;5.596;2023-03-14T12:46:14;3.92;;;2.42;;
19521;SDS011;9905;52.126;5.596;2023-03-14T12:48:48;2.60;;;2.40;;
19521;SDS011;9905;52.126;5.596;2023-03-14T12:51:17;4.97;;;2.80;;
19521;SDS011;9905;52.126;5.596;2023-03-14T12:56:45;4.65;;;2.70;;
19521;SDS011;9905;52.126;5.596;2023-03-14T12:59:28;3.47;;;2.08;;
19521;SDS011;9905;52.126;5.596;2023-03-14T13:01:59;5.65;;;2.47;;
19521;SDS011;9905;52.126;5.596;2023-03-14T13:04:29;3.50;;;2.28;;
19521;SDS011;9905;52.126;5.596;2023-03-14T13:07:00;2.35;;;2.25;;
19521;SDS011;9905;52.126;5.596;2023-03-14T13:09:35;6.00;;;2.28;;
19521;SDS011;9905;52.126;5.596;2023-03-14T13:12:16;4.43;;;2.10;;
19521;SDS011;9905;52.126;5.596;2023-03-14T13:14:45;7.50;;;2.03;;
19521;SDS011;9905;52.126;5.596;2023-03-14T13:17:14;5.78;;;2.10;;
19521;SDS011;9905;52.126;5.596;2023-03-14T13:19:44;2.25;;;2.10;;
19521;SDS011;9905;52.126;5.596;2023-03-14T13:22:21;4.43;;;2.45;;
19521;SDS011;9905;52.126;5.596;2023-03-14T13:24:50;5.35;;;2.15;;
19521;SDS011;9905;52.126;5.596;2023-03-14T13:27:24;3.22;;;2.10;;
19521;SDS011;9905;52.126;5.596;2023-03-14T13:29:53;2.28;;;1.92;;
19521;SDS011;9905;52.126;5.596;2023-03-14T13:32:21;1.80;;;1.70;;
19521;SDS011;9905;52.126;5.596;2023-03-14T13:34:51;4.63;;;3.03;;
19521;SDS011;9905;52.126;5.596;2023-03-14T13:37:21;2.58;;;2.38;;
19521;SDS011;9905;52.126;5.596;2023-03-14T13:39:49;1.90;;;1.80;;
19521;SDS011;9905;52.126;5.596;2023-03-14T13:42:18;2.28;;;2.03;;
19521;SDS011;9905;52.126;5.596;2023-03-14T13:44:45;4.20;;;2.88;;
19521;SDS011;9905;52.126;5.596;2023-03-14T13:47:14;2.55;;;1.85;;
19521;SDS011;9905;52.126;5.596;2023-03-14T13:49:42;4.53;;;1.90;;
19521;SDS011;9905;52.126;5.596;2023-03-14T13:55:01;5.95;;;2.28;;
19521;SDS011;9905;52.126;5.596;2023-03-14T13:57:42;3.97;;;2.15;;
19521;SDS011;9905;52.126;5.596;2023-03-14T14:00:16;7.13;;;3.33;;
19521;SDS011;9905;52.126;5.596;2023-03-14T14:02:46;2.30;;;2.10;;
19521;SDS011;9905;52.126;5.596;2023-03-14T14:05:14;3.63;;;2.40;;
19521;SDS011;9905;52.126;5.596;2023-03-14T14:07:42;6.80;;;2.60;;
19521;SDS011;9905;52.126;5.596;2023-03-14T14:10:10;2.72;;;2.53;;
19521;SDS011;9905;52.126;5.596;2023-03-14T14:12:39;1.90;;;1.80;;
19521;SDS011;9905;52.126;5.596;2023-03-14T14:15:15;4.40;;;2.20;;
19521;SDS011;9905;52.126;5.596;2023-03-14T14:17:47;1.92;;;1.80;;
19521;SDS011;9905;52.126;5.596;2023-03-14T14:20:20;2.30;;;2.20;;
19521;SDS011;9905;52.126;5.596;2023-03-14T14:22:50;3.10;;;2.20;;
19521;SDS011;9905;52.126;5.596;2023-03-14T14:25:17;2.33;;;2.00;;
19521;SDS011;9905;52.126;5.596;2023-03-14T14:27:46;3.58;;;2.20;;
19521;SDS011;9905;52.126;5.596;2023-03-14T14:30:25;2.40;;;2.20;;
19521;SDS011;9905;52.126;5.596;2023-03-14T14:33:11;1.98;;;1.98;;
19521;SDS011;9905;52.126;5.596;2023-03-14T14:35:49;2.17;;;2.08;;
19521;SDS011;9905;52.126;5.596;2023-03-14T14:38:18;3.88;;;2.00;;
19521;SDS011;9905;52.126;5.596;2023-03-14T14:40:47;2.25;;;2.03;;
19521;SDS011;9905;52.126;5.596;2023-03-14T14:43:17;3.58;;;1.92;;
19521;SDS011;9905;52.126;5.596;2023-03-14T14:45:47;3.20;;;2.15;;
19521;SDS011;9905;52.126;5.596;2023-03-14T14:48:19;5.45;;;3.15;;
19521;SDS011;9905;52.126;5.596;2023-03-14T14:53:36;5.70;;;2.50;;
19521;SDS011;9905;52.126;5.596;2023-03-14T14:56:06;2.67;;;2.17;;
19521;SDS011;9905;52.126;5.596;2023-03-14T14:58:43;9.55;;;3.20;;
19521;SDS011;9905;52.126;5.596;2023-03-14T15:01:11;3.25;;;1.83;;
19521;SDS011;9905;52.126;5.596;2023-03-14T15:03:43;4.72;;;2.38;;
19521;SDS011;9905;52.126;5.596;2023-03-14T15:06:11;2.58;;;2.13;;
19521;SDS011;9905;52.126;5.596;2023-03-14T15:08:39;2.83;;;2.58;;
19521;SDS011;9905;52.126;5.596;2023-03-14T15:11:08;3.85;;;2.25;;
19521;SDS011;9905;52.126;5.596;2023-03-14T15:13:41;3.08;;;2.05;;
19521;SDS011;9905;52.126;5.596;2023-03-14T15:16:08;6.10;;;2.08;;